Time;durP1;ratioP1;P1;durP2;ratioP2;P2;SDS_P1;SDS_P2;PMS_P1;PMS_P2;Temp;Humidity;BMP_temperature;BMP_pressure;BME280_temperature;BME280_humidity;BME280_pressure;Samples;Min_cycle;Max_cycle;Signal;HPM_P1;HPM_P2
2021/12/18 00:00:26;;;;;;;;;28.33;25.67;;;;;9.90;64.04;103312.44;6093548;23;45635;-80
2021/12/18 00:02:52;;;;;;;;;29.67;29.00;;;;;9.82;63.98;103307.13;6092958;23;45678;-79
2021/12/18 00:05:17;;;;;;;;;36.67;29.67;;;;;9.56;64.30;103261.81;6093964;23;45363;-79
2021/12/18 00:07:42;;;;;;;;;30.33;28.33;;;;;9.71;63.69;103287.56;6093726;23;45610;-79
2021/12/18 00:10:08;;;;;;;;;32.00;27.33;;;;;9.84;64.09;103312.44;6094481;23;46205;-79
2021/12/18 00:12:33;;;;;;;;;29.00;26.33;;;;;9.69;63.80;103287.59;6066839;23;45907;-79
2021/12/18 00:14:59;;;;;;;;;31.33;23.67;;;;;9.80;64.12;103308.00;6093958;23;45330;-79
2021/12/18 00:17:24;;;;;;;;;29.00;25.33;;;;;9.54;64.16;103263.59;6094599;23;45462;-79
2021/12/18 00:19:49;;;;;;;;;34.67;30.00;;;;;9.76;63.97;103300.88;6067609;23;45961;-79
2021/12/18 00:22:15;;;;;;;;;26.00;18.00;;;;;9.75;64.24;103302.66;6093918;23;45406;-79
2021/12/18 00:24:40;;;;;;;;;24.67;24.67;;;;;9.76;63.78;103308.88;6066826;23;45383;-79
2021/12/18 00:27:06;;;;;;;;;29.33;24.67;;;;;9.42;64.20;103243.16;6093897;23;45449;-79
2021/12/18 00:29:32;;;;;;;;;31.33;23.33;;;;;9.46;63.94;103255.59;6093871;23;45459;-79
2021/12/18 00:31:57;;;;;;;;;27.67;23.33;;;;;9.70;64.06;103300.00;6093471;23;45717;-78
2021/12/18 00:34:22;;;;;;;;;27.00;23.33;;;;;9.59;63.90;103277.78;6094180;23;45248;-78
2021/12/18 00:36:48;;;;;;;;;31.00;28.00;;;;;9.68;64.16;103291.13;6093716;23;45203;-79
2021/12/18 00:39:13;;;;;;;;;32.00;28.67;;;;;9.66;63.88;103284.91;6093940;23;45967;-78
2021/12/18 00:44:28;;;;;;;;;27.00;24.67;;;;;9.61;64.05;103285.78;5975537;23;45670;-78
2021/12/18 00:46:53;;;;;;;;;33.00;27.67;;;;;9.50;64.14;103270.69;5975852;23;45310;-79
2021/12/18 00:49:19;;;;;;;;;27.00;24.33;;;;;9.63;64.03;103294.69;5975690;23;45547;-79
2021/12/18 00:51:46;;;;;;;;;27.67;23.33;;;;;9.62;63.55;103290.22;5975432;23;45795;-79
2021/12/18 00:54:11;;;;;;;;;26.00;23.67;;;;;9.38;63.57;103249.38;5976751;23;45364;-79
2021/12/18 00:56:37;;;;;;;;;26.00;26.00;;;;;9.59;63.97;103292.88;5975590;23;45489;-79
2021/12/18 00:59:02;;;;;;;;;31.00;28.00;;;;;9.55;63.62;103285.78;5952480;23;48256;-79
2021/12/18 01:01:28;;;;;;;;;31.00;25.67;;;;;9.44;63.60;103280.44;5975794;23;45710;-79
2021/12/18 01:03:56;;;;;;;;;27.67;24.33;;;;;9.46;63.44;103278.69;5975557;23;45596;-78
2021/12/18 01:06:23;;;;;;;;;26.67;24.67;;;;;9.26;63.45;103252.91;5976545;23;45734;-78
2021/12/18 01:08:56;;;;;;;;;21.00;17.00;;;;;9.36;63.76;103271.53;5974521;23;46029;-78
2021/12/18 01:24:55;;;;;;;;;27.33;24.00;;;;;9.26;63.71;103278.63;5947718;23;45375;-78
2021/12/18 01:27:20;;;;;;;;;23.00;19.00;;;;;9.17;63.77;103268.84;5947925;23;45366;-78
2021/12/18 01:29:46;;;;;;;;;26.33;24.33;;;;;9.17;63.79;103274.16;5947877;23;46580;-78
2021/12/18 01:32:11;;;;;;;;;24.33;23.00;;;;;9.34;63.63;103299.91;5923811;23;45473;-78
2021/12/18 01:34:37;;;;;;;;;25.67;24.00;;;;;9.33;63.57;103299.03;5947970;23;45369;-78
2021/12/18 01:37:04;;;;;;;;;25.00;23.00;;;;;9.33;63.70;103295.50;5947619;23;45557;-78
2021/12/18 01:39:29;;;;;;;;;24.00;20.67;;;;;9.26;63.56;103284.81;5946972;23;45426;-78
2021/12/18 01:52:40;;;;;;;;;22.00;20.33;;;;;9.26;63.23;103310.56;6023639;23;45264;-78
2021/12/18 01:55:06;;;;;;;;;27.33;24.67;;;;;9.11;63.49;103291.88;6093769;23;45331;-78
2021/12/18 01:57:32;;;;;;;;;19.00;18.67;;;;;9.12;63.44;103288.34;6095527;23;45316;-78
2021/12/18 01:59:58;;;;;;;;;26.67;24.00;;;;;9.16;63.48;103296.34;6094345;23;45395;-78
2021/12/18 02:02:24;;;;;;;;;20.33;20.33;;;;;9.18;63.49;103302.56;6094215;23;45415;-78
2021/12/18 02:04:49;;;;;;;;;23.00;22.67;;;;;9.01;63.50;103270.59;6094591;23;45343;-78
2021/12/18 02:07:15;;;;;;;;;23.67;22.67;;;;;8.98;63.57;103272.31;6094664;23;45513;-78
2021/12/18 02:12:18;;;;;;;;;24.33;20.33;;;;;8.77;63.23;103250.06;6094198;23;45481;-78
2021/12/18 02:20:25;;;;;;;;;27.33;20.00;;;;;9.01;63.56;103290.94;6094778;23;45850;-78
2021/12/18 02:22:55;;;;;;;;;23.33;21.33;;;;;9.11;63.35;103303.41;6068508;23;45300;-78
2021/12/18 02:25:22;;;;;;;;;22.00;21.33;;;;;9.11;63.49;103310.50;6068166;23;45450;-78
2021/12/18 02:27:49;;;;;;;;;23.00;20.33;;;;;9.11;63.51;103315.81;6094812;23;45223;-78
2021/12/18 02:30:16;;;;;;;;;23.00;20.67;;;;;9.03;63.20;103313.13;6094148;23;45413;-78
2021/12/18 02:32:42;;;;;;;;;18.33;18.00;;;;;9.00;63.75;103299.81;6094342;23;45354;-78
2021/12/18 02:35:09;;;;;;;;;28.67;24.33;;;;;9.05;63.50;103306.03;6094735;23;45247;-78
2021/12/18 02:37:40;;;;;;;;;25.33;22.67;;;;;9.05;63.52;103306.94;6094616;23;45248;-78
2021/12/18 02:42:35;;;;;;;;;19.67;18.67;;;;;8.88;63.24;103274.06;6094244;23;45432;-78
2021/12/18 02:45:06;;;;;;;;;23.67;21.00;;;;;8.89;63.75;103281.16;6094884;23;45376;-78
2021/12/18 02:47:31;;;;;;;;;23.67;21.00;;;;;9.02;63.21;103306.94;6094844;23;45350;-77
2021/12/18 02:49:57;;;;;;;;;22.67;22.67;;;;;9.02;63.38;103306.94;6067747;23;46179;-78
2021/12/18 02:52:27;;;;;;;;;27.00;21.67;;;;;9.01;63.56;103302.50;6093755;23;45460;-78
2021/12/18 02:54:53;;;;;;;;;27.67;24.00;;;;;9.06;63.66;103303.41;6094580;23;45316;-78
2021/12/18 02:57:19;;;;;;;;;22.67;21.67;;;;;8.93;63.53;103282.06;6068331;23;45433;-78
2021/12/18 02:59:47;;;;;;;;;21.00;20.67;;;;;9.05;63.41;103312.25;6093941;23;46146;-78
2021/12/18 03:02:14;;;;;;;;;24.67;21.33;;;;;8.98;63.27;103297.16;6067356;23;45363;-78
2021/12/18 03:04:41;;;;;;;;;26.67;20.33;;;;;8.90;63.28;103274.97;6094333;23;45406;-78
2021/12/18 03:07:09;;;;;;;;;23.33;20.67;;;;;9.10;63.64;103306.94;6094051;23;45416;-78
2021/12/18 03:26:20;;;;;;;;;23.33;22.00;;;;;9.13;63.19;103304.31;5999031;23;45450;-78
2021/12/18 03:28:45;;;;;;;;;23.67;21.33;;;;;9.16;62.88;103312.31;6062713;23;45358;-78
2021/12/18 03:31:11;;;;;;;;;19.00;14.67;;;;;9.15;63.12;103309.63;6037884;23;46484;-78
2021/12/18 03:33:36;;;;;;;;;21.33;20.33;;;;;9.06;63.18;103281.22;6062229;23;45330;-78
2021/12/18 03:36:02;;;;;;;;;28.33;22.00;;;;;9.12;62.99;103293.66;6062579;23;45427;-78
2021/12/18 03:38:28;;;;;;;;;21.33;20.67;;;;;9.19;63.02;103298.13;6062580;23;45635;-78
2021/12/18 03:40:53;;;;;;;;;23.00;20.67;;;;;9.18;63.37;103299.00;6062372;23;45839;-78
2021/12/18 03:43:18;;;;;;;;;26.33;23.00;;;;;9.15;63.29;103291.88;6062727;23;45429;-78
2021/12/18 03:45:44;;;;;;;;;23.67;21.00;;;;;9.22;63.35;103295.47;6062300;23;45847;-78
2021/12/18 03:48:09;;;;;;;;;24.00;22.33;;;;;9.12;63.43;103273.25;6064594;23;45549;-78
2021/12/18 03:50:35;;;;;;;;;22.33;22.33;;;;;9.25;63.46;103291.03;6093591;23;46110;-78
2021/12/18 03:53:00;;;;;;;;;29.00;23.50;;;;;9.20;63.29;103274.19;6094659;23;45279;-78
2021/12/18 03:55:26;;;;;;;;;24.67;22.00;;;;;9.24;63.65;103275.94;6094688;23;45408;-78
2021/12/18 03:57:52;;;;;;;;;23.33;22.33;;;;;9.04;63.77;103236.00;6068605;23;45656;-78
2021/12/18 04:00:18;;;;;;;;;24.33;22.67;;;;;9.11;63.75;103242.22;6093684;23;45707;-78
2021/12/18 04:02:44;;;;;;;;;24.67;21.33;;;;;9.19;63.73;103252.88;6093302;23;45422;-78
2021/12/18 04:05:10;;;;;;;;;25.33;22.00;;;;;9.35;63.51;103278.66;6094506;23;45302;-78
2021/12/18 04:07:41;;;;;;;;;23.00;22.00;;;;;9.28;63.80;103258.22;6094299;23;45323;-78
2021/12/18 04:10:09;;;;;;;;;24.33;22.00;;;;;9.38;63.84;103286.63;6094167;23;46314;-78
2021/12/18 04:12:34;;;;;;;;;18.67;17.00;;;;;9.27;63.73;103261.75;6093280;23;45403;-78
2021/12/18 04:14:59;;;;;;;;;26.33;23.00;;;;;9.33;64.01;103269.78;6093875;23;45368;-78
2021/12/18 04:17:25;;;;;;;;;25.00;22.00;;;;;9.34;63.71;103268.91;6094131;23;45350;-78
2021/12/18 04:19:50;;;;;;;;;24.33;24.00;;;;;9.20;63.80;103236.03;6092932;23;45519;-78
2021/12/18 04:22:15;;;;;;;;;27.33;23.33;;;;;9.49;63.96;103284.88;6094187;23;45398;-78
2021/12/18 04:24:41;;;;;;;;;26.00;23.67;;;;;9.41;63.85;103265.38;6067450;23;45634;-78
2021/12/18 04:27:06;;;;;;;;;25.67;24.33;;;;;9.21;63.95;103227.16;6094566;23;45394;-78
2021/12/18 04:29:31;;;;;;;;;25.00;22.33;;;;;9.44;63.89;103261.81;6093498;23;51796;-78
2021/12/18 04:31:57;;;;;;;;;26.00;23.00;;;;;9.22;63.97;103226.28;6093278;23;45375;-78
2021/12/18 04:34:22;;;;;;;;;17.00;14.67;;;;;9.57;64.04;103278.69;6093983;23;45587;-78
2021/12/18 04:36:47;;;;;;;;;28.33;25.00;;;;;9.47;64.04;103253.81;6093951;23;45370;-78
2021/12/18 04:39:13;;;;;;;;;24.67;21.67;;;;;9.62;64.17;103282.22;6093839;23;49073;-78
2021/12/18 04:41:50;;;;;;;;;27.33;24.67;;;;;9.63;63.89;103282.25;6093856;23;45327;-77
2021/12/18 04:44:16;;;;;;;;;24.00;20.67;;;;;9.60;64.23;103282.25;6067713;23;45192;-78
2021/12/18 04:46:42;;;;;;;;;20.33;19.67;;;;;9.57;63.85;103263.59;6093793;23;45585;-78
2021/12/18 04:49:07;;;;;;;;;22.33;22.33;;;;;9.58;64.07;103268.03;6093069;23;45840;-78
2021/12/18 04:51:33;;;;;;;;;27.33;24.00;;;;;9.70;63.96;103281.34;6067336;23;46268;-78
2021/12/18 04:53:58;;;;;;;;;25.33;23.33;;;;;9.75;64.25;103291.13;6093187;23;45563;-78
2021/12/18 04:56:24;;;;;;;;;27.00;25.00;;;;;9.76;64.07;103293.78;6094369;23;45405;-78
2021/12/18 04:58:49;;;;;;;;;26.00;24.67;;;;;9.77;64.19;103295.56;6092990;23;46043;-78
2021/12/18 05:01:16;;;;;;;;;23.00;21.33;;;;;9.79;63.80;103293.81;6093036;23;45554;-78
2021/12/18 05:03:42;;;;;;;;;29.67;23.33;;;;;9.65;64.17;103266.28;6092897;23;45518;-78
2021/12/18 05:06:07;;;;;;;;;27.00;26.00;;;;;9.69;64.13;103274.28;6093534;23;45307;-78
2021/12/18 05:08:33;;;;;;;;;20.67;20.67;;;;;9.83;63.97;103298.25;6093075;23;45418;-78
2021/12/18 05:10:58;;;;;;;;;29.33;24.67;;;;;9.73;63.90;103284.00;6093481;23;45746;-78
2021/12/18 05:13:23;;;;;;;;;24.67;20.67;;;;;9.86;63.89;103292.91;6093873;23;45739;-77
2021/12/18 05:15:49;;;;;;;;;25.67;23.67;;;;;9.88;64.01;103292.91;6093526;23;45489;-78
2021/12/18 05:18:14;;;;;;;;;25.33;21.67;;;;;9.83;63.97;103289.34;6093164;23;45866;-78
2021/12/18 05:20:40;;;;;;;;;27.00;25.00;;;;;9.89;63.73;103290.25;6093479;23;45245;-78
2021/12/18 05:23:05;;;;;;;;;30.33;24.67;;;;;9.88;63.50;103298.22;6093634;23;45490;-78
2021/12/18 05:25:30;;;;;;;;;26.67;22.00;;;;;9.91;63.74;103301.78;6095156;23;45339;-78
2021/12/18 05:27:56;;;;;;;;;28.33;25.00;;;;;9.94;63.33;103300.91;6094511;23;46455;-78
2021/12/18 05:30:21;;;;;;;;;21.67;19.33;;;;;9.89;63.32;103289.34;6095171;23;45485;-76
2021/12/18 05:32:47;;;;;;;;;26.00;22.33;;;;;9.85;63.36;103282.25;6094544;23;45321;-77
2021/12/18 05:35:15;;;;;;;;;24.33;21.67;;;;;9.96;63.34;103298.25;6095385;23;45442;-77
2021/12/18 05:37:47;;;;;;;;;25.00;21.33;;;;;9.83;63.29;103276.94;6094749;23;45871;-76
2021/12/18 05:40:16;;;;;;;;;28.33;25.67;;;;;9.96;63.20;103301.78;6094831;23;45782;-77
2021/12/18 05:42:41;;;;;;;;;18.67;18.67;;;;;9.81;63.25;103275.13;6094590;23;45410;-77
2021/12/18 05:45:07;;;;;;;;;25.33;22.67;;;;;9.78;63.11;103273.38;6094836;23;45371;-77
2021/12/18 05:47:33;;;;;;;;;22.33;21.33;;;;;9.89;62.94;103278.72;6094058;23;46400;-77
2021/12/18 05:49:58;;;;;;;;;14.67;14.67;;;;;9.92;63.00;103289.34;6067961;23;45365;-77
2021/12/18 05:52:24;;;;;;;;;18.67;18.67;;;;;9.91;62.78;103287.59;6094633;23;45962;-77
2021/12/18 05:54:50;;;;;;;;;25.00;21.67;;;;;9.82;63.25;103268.94;6095017;23;45289;-77
2021/12/18 05:57:16;;;;;;;;;23.33;20.67;;;;;9.79;62.82;103264.50;6093984;23;46082;-77
2021/12/18 05:59:41;;;;;;;;;26.00;22.00;;;;;9.90;62.47;103284.03;6094668;23;45325;-77
2021/12/18 06:02:07;;;;;;;;;26.33;24.67;;;;;9.84;63.13;103269.84;6093048;23;45295;-77
2021/12/18 06:04:32;;;;;;;;;22.33;21.00;;;;;9.98;62.65;103294.69;6093992;23;45322;-77
2021/12/18 06:07:04;;;;;;;;;23.67;19.67;;;;;9.99;62.79;103292.91;6094645;23;46226;-77
2021/12/18 06:09:31;;;;;;;;;22.67;21.67;;;;;10.02;62.39;103288.47;6094818;23;45826;-77
2021/12/18 06:11:58;;;;;;;;;23.67;19.33;;;;;9.99;62.87;103285.78;6094844;23;45437;-77
2021/12/18 06:14:24;;;;;;;;;21.67;20.33;;;;;9.89;62.32;103257.41;6094443;23;45486;-77
2021/12/18 06:16:49;;;;;;;;;26.33;20.33;;;;;10.07;61.99;103284.03;6094062;23;45841;-77
2021/12/18 06:19:14;;;;;;;;;24.33;21.33;;;;;10.03;62.07;103278.72;6094142;23;45391;-77
2021/12/18 06:21:40;;;;;;;;;24.00;19.67;;;;;9.95;62.18;103262.72;6094743;23;45714;-77
2021/12/18 06:24:05;;;;;;;;;26.00;21.67;;;;;10.10;62.11;103281.34;6094875;23;45426;-76
2021/12/18 06:26:30;;;;;;;;;21.67;19.00;;;;;10.10;61.88;103284.03;6094007;23;45425;-77
2021/12/18 06:28:56;;;;;;;;;24.00;19.33;;;;;10.11;61.72;103279.56;6094247;23;45441;-76
2021/12/18 06:31:22;;;;;;;;;24.67;19.67;;;;;9.97;61.77;103260.94;6093730;23;46282;-77
2021/12/18 06:33:48;;;;;;;;;22.67;21.33;;;;;10.14;61.56;103284.91;6095082;23;45461;-77
2021/12/18 06:36:13;;;;;;;;;21.00;18.33;;;;;10.13;61.85;103284.00;6094049;23;45506;-77
2021/12/18 06:38:38;;;;;;;;;24.00;22.00;;;;;9.98;61.54;103261.84;6094587;23;47869;-77
2021/12/18 06:41:04;;;;;;;;;23.33;19.00;;;;;10.01;61.59;103273.38;6094880;23;45423;-77
2021/12/18 06:43:29;;;;;;;;;24.00;17.33;;;;;9.99;61.48;103272.47;6094966;23;45269;-78
2021/12/18 06:45:54;;;;;;;;;22.33;19.67;;;;;9.92;61.10;103265.38;6067742;23;47333;-77
2021/12/18 06:48:20;;;;;;;;;22.00;21.00;;;;;10.05;61.22;103292.91;6094080;23;48462;-77
2021/12/18 06:50:45;;;;;;;;;31.33;21.33;;;;;10.08;61.03;103299.13;6094899;23;45533;-78
2021/12/18 06:53:11;;;;;;;;;23.00;21.00;;;;;10.00;61.26;103286.72;6095072;23;45643;-77
2021/12/18 06:55:36;;;;;;;;;20.33;17.33;;;;;9.98;61.12;103289.38;6093778;23;48025;-77
2021/12/18 06:58:02;;;;;;;;;19.33;16.67;;;;;10.01;61.36;103294.69;6093914;23;45335;-77
2021/12/18 07:00:28;;;;;;;;;21.00;19.33;;;;;9.98;61.08;103299.13;6092880;23;45279;-77
2021/12/18 07:02:54;;;;;;;;;23.67;21.00;;;;;9.95;61.41;103297.38;6093378;23;45512;-77
2021/12/18 07:05:20;;;;;;;;;19.67;17.33;;;;;9.94;61.33;103300.91;6094150;23;45492;-78
2021/12/18 07:07:46;;;;;;;;;23.67;20.33;;;;;9.73;61.13;103270.69;6094585;23;45459;-77
2021/12/18 07:10:14;;;;;;;;;20.00;20.00;;;;;9.84;61.50;103300.00;6094928;23;45387;-77
2021/12/18 07:12:40;;;;;;;;;24.33;23.00;;;;;9.65;61.51;103272.47;6094301;23;45298;-77
2021/12/18 07:15:08;;;;;;;;;25.33;22.33;;;;;9.82;61.51;103306.22;6093683;23;46121;-77
2021/12/18 07:17:34;;;;;;;;;28.67;21.33;;;;;9.69;61.97;103290.25;6094112;23;45452;-77
2021/12/18 07:19:59;;;;;;;;;20.00;18.00;;;;;9.66;61.57;103292.88;6095107;23;45732;-77
2021/12/18 07:22:25;;;;;;;;;22.00;22.00;;;;;9.75;61.98;103309.78;6095333;23;45374;-77
2021/12/18 07:24:50;;;;;;;;;21.00;18.67;;;;;9.75;61.79;103307.13;6093301;23;45989;-77
2021/12/18 07:27:16;;;;;;;;;24.67;22.00;;;;;9.60;61.76;103292.91;6094577;23;45382;-78
2021/12/18 07:29:42;;;;;;;;;25.00;21.33;;;;;9.68;62.13;103317.75;6094195;23;45445;-77
2021/12/18 07:32:07;;;;;;;;;22.00;22.00;;;;;9.66;62.04;103319.50;6095381;23;45351;-77
2021/12/18 07:34:34;;;;;;;;;20.67;18.67;;;;;9.51;61.96;103296.44;6093888;23;46970;-77
2021/12/18 07:36:59;;;;;;;;;24.33;21.67;;;;;9.46;62.07;103298.19;6094988;23;45505;-78
2021/12/18 07:39:25;;;;;;;;;21.33;20.33;;;;;9.46;62.56;103300.84;6068383;23;45746;-78
2021/12/18 07:41:50;;;;;;;;;24.33;21.67;;;;;9.37;62.19;103295.50;6093854;23;45319;-77
2021/12/18 07:44:15;;;;;;;;;25.00;20.00;;;;;9.58;62.46;103325.75;6092987;23;45580;-77
2021/12/18 07:46:41;;;;;;;;;21.00;19.00;;;;;9.50;62.17;103318.63;6093437;23;45303;-77
2021/12/18 07:49:08;;;;;;;;;27.00;22.00;;;;;9.36;62.21;103293.72;6094840;23;45295;-78
2021/12/18 07:51:34;;;;;;;;;23.67;22.00;;;;;9.49;62.14;103322.16;6093844;23;45282;-78
2021/12/18 07:54:00;;;;;;;;;29.00;22.33;;;;;9.46;62.10;103315.94;6093672;23;46023;-78
2021/12/18 07:56:26;;;;;;;;;18.67;16.33;;;;;9.26;62.29;103284.81;6093828;23;45421;-78
2021/12/18 07:58:54;;;;;;;;;26.33;21.00;;;;;9.39;62.42;103311.47;6092293;23;45380;-77
2021/12/18 08:01:20;;;;;;;;;21.67;17.00;;;;;9.14;62.36;103268.84;6095051;23;45294;-78
2021/12/18 08:03:46;;;;;;;;;21.00;19.00;;;;;9.45;62.45;103319.47;6093200;23;45519;-78
2021/12/18 08:06:11;;;;;;;;;21.67;20.67;;;;;9.43;62.62;103314.13;6094614;23;45303;-78
2021/12/18 08:08:37;;;;;;;;;22.33;19.33;;;;;9.21;62.68;103275.06;6093974;23;45303;-78
2021/12/18 08:11:03;;;;;;;;;25.67;25.33;;;;;9.41;62.50;103315.94;6094939;23;45307;-78
2021/12/18 08:13:29;;;;;;;;;25.67;22.00;;;;;9.40;62.43;103313.25;6094103;23;45422;-78
2021/12/18 08:15:54;;;;;;;;;21.67;20.67;;;;;9.46;62.51;103322.16;6093800;23;45408;-78
2021/12/18 08:18:20;;;;;;;;;19.33;18.67;;;;;9.27;62.12;103283.97;6094134;23;45410;-78
2021/12/18 08:20:45;;;;;;;;;24.67;19.33;;;;;9.40;62.30;103307.94;6094152;23;45845;-77
2021/12/18 08:23:11;;;;;;;;;23.33;21.33;;;;;9.49;62.41;103321.28;6094333;23;45974;-77
2021/12/18 08:25:37;;;;;;;;;23.00;22.00;;;;;9.52;61.92;103319.50;6093437;23;45339;-78
2021/12/18 08:28:04;;;;;;;;;21.00;20.67;;;;;9.52;62.17;103327.47;6094236;23;45322;-77
2021/12/18 08:30:32;;;;;;;;;24.00;22.33;;;;;9.53;62.03;103323.06;6093884;23;45300;-78
2021/12/18 08:32:58;;;;;;;;;24.67;22.00;;;;;9.53;61.98;103331.06;6093144;23;46846;-78
2021/12/18 08:35:28;;;;;;;;;21.00;17.67;;;;;9.52;62.15;103337.25;6094130;23;45387;-78
2021/12/18 08:37:56;;;;;;;;;22.00;21.00;;;;;9.46;61.90;103323.94;6093896;23;45822;-77
2021/12/18 08:40:23;;;;;;;;;22.33;18.33;;;;;9.36;61.99;103304.38;6093216;23;45543;-77
2021/12/18 08:42:48;;;;;;;;;23.33;20.67;;;;;9.57;61.85;103337.25;6093537;23;46235;-77
2021/12/18 08:45:14;;;;;;;;;23.33;20.67;;;;;9.58;61.83;103331.94;6093561;23;45397;-77
2021/12/18 08:47:40;;;;;;;;;23.67;20.33;;;;;9.40;61.65;103299.94;6093930;23;45279;-77
2021/12/18 08:50:10;;;;;;;;;21.00;20.67;;;;;9.64;61.80;103333.72;6094390;23;45726;-77
2021/12/18 08:52:35;;;;;;;;;20.00;18.67;;;;;9.65;61.70;103338.19;6093234;23;45479;-78
2021/12/18 08:55:01;;;;;;;;;23.00;23.00;;;;;9.50;61.81;103313.31;6092734;23;45348;-78
2021/12/18 08:57:27;;;;;;;;;21.33;21.33;;;;;9.70;61.44;103341.72;6093434;23;45369;-77
2021/12/18 08:59:52;;;;;;;;;22.33;19.33;;;;;9.71;61.49;103339.03;6094393;23;45469;-77
2021/12/18 09:02:18;;;;;;;;;24.00;20.33;;;;;9.71;61.23;103331.06;6092311;23;49642;-77
2021/12/18 09:04:43;;;;;;;;;18.67;15.33;;;;;9.75;61.39;103339.06;6094367;23;45355;-77
2021/12/18 09:07:08;;;;;;;;;23.33;21.67;;;;;9.63;61.25;103306.22;6094626;23;45324;-77
2021/12/18 09:09:34;;;;;;;;;16.33;14.00;;;;;9.77;60.88;103331.97;6095197;23;45332;-77
2021/12/18 09:12:00;;;;;;;;;27.00;22.67;;;;;9.74;61.46;103311.56;6093803;23;46313;-77
2021/12/18 09:14:25;;;;;;;;;27.33;23.67;;;;;9.85;61.16;103325.75;6093837;23;45375;-77
2021/12/18 09:16:52;;;;;;;;;23.67;22.00;;;;;9.67;60.95;103293.81;6094641;23;45320;-78
2021/12/18 09:19:17;;;;;;;;;19.67;17.33;;;;;9.75;60.83;103297.34;6095959;23;45256;-78
2021/12/18 09:21:43;;;;;;;;;20.33;18.33;;;;;9.94;60.96;103319.53;6094607;23;45563;-77
2021/12/18 09:24:08;;;;;;;;;24.00;17.33;;;;;9.81;61.12;103284.03;6094568;23;45352;-78
2021/12/18 09:26:33;;;;;;;;;25.00;23.33;;;;;10.01;60.74;103316.00;6094689;23;45337;-76
2021/12/18 09:28:59;;;;;;;;;18.33;15.67;;;;;10.04;60.70;103312.44;6095485;23;45389;-77
2021/12/18 09:31:25;;;;;;;;;22.33;20.67;;;;;10.10;60.62;103313.34;6067901;23;45392;-76
2021/12/18 09:33:51;;;;;;;;;19.67;18.67;;;;;9.83;60.29;103255.63;6094889;23;45323;-78
2021/12/18 09:36:17;;;;;;;;;24.00;22.00;;;;;10.15;60.09;103294.69;6094654;23;45244;-76
2021/12/18 09:38:43;;;;;;;;;24.33;19.67;;;;;10.23;59.79;103298.25;6095130;23;45415;-77
2021/12/18 09:41:08;;;;;;;;;23.00;18.67;;;;;10.27;60.03;103307.97;6095174;23;45445;-76
2021/12/18 09:43:36;;;;;;;;;26.00;18.33;;;;;10.31;59.79;103306.25;6095436;23;45763;-78
2021/12/18 09:46:07;;;;;;;;;26.67;25.00;;;;;10.35;59.60;103308.91;6094816;23;45416;-77
2021/12/18 09:48:36;;;;;;;;;22.67;19.00;;;;;10.19;59.33;103266.25;6095279;23;45295;-78
2021/12/18 09:51:13;;;;;;;;;22.00;19.33;;;;;10.44;59.38;103312.44;6094587;23;45480;-76
2021/12/18 09:53:39;;;;;;;;;31.33;21.33;;;;;10.31;59.15;103285.81;6094414;23;45360;-76
2021/12/18 09:56:05;;;;;;;;;22.33;20.33;;;;;10.35;59.00;103270.72;6094617;23;45350;-77
2021/12/18 09:58:33;;;;;;;;;21.00;18.33;;;;;10.44;59.20;103288.44;6094941;23;45339;-78
2021/12/18 10:00:59;;;;;;;;;22.33;19.67;;;;;10.63;59.21;103313.28;6066944;23;46714;-79
2021/12/18 10:03:45;;;;;;;;;25.67;22.67;;;;;10.64;58.98;103304.41;6091116;23;45453;-78
2021/12/18 10:06:41;;;;;;;;;25.00;21.67;;;;;10.67;58.97;103307.94;6094069;23;45314;-80
2021/12/18 10:09:17;;;;;;;;;27.33;23.67;;;;;10.70;58.60;103309.69;6067833;23;45363;-79
2021/12/18 10:11:45;;;;;;;;;28.00;21.67;;;;;10.74;58.82;103304.34;6094157;23;46118;-78
2021/12/18 10:14:12;;;;;;;;;26.00;22.67;;;;;10.71;58.29;103290.16;6093358;23;45308;-81
2021/12/18 10:17:04;;;;;;;;;26.00;21.00;;;;;10.71;58.40;103288.38;6094181;23;45836;-79
2021/12/18 10:19:36;;;;;;;;;27.00;24.00;;;;;10.75;58.52;103291.94;6069587;23;45558;-78
2021/12/18 10:22:09;;;;;;;;;19.00;19.00;;;;;10.84;58.41;103299.91;6093528;23;45966;-79
2021/12/18 10:24:37;;;;;;;;;20.33;19.33;;;;;10.86;58.10;103302.53;6094302;23;45671;-80
2021/12/18 10:27:18;;;;;;;;;23.00;21.67;;;;;10.87;58.19;103297.22;6093905;23;45802;-79
2021/12/18 10:29:44;;;;;;;;;21.33;21.33;;;;;10.89;57.55;103295.44;6093861;23;45328;-79
2021/12/18 10:32:13;;;;;;;;;26.67;22.67;;;;;10.91;57.82;103284.72;6093317;23;45387;-79
2021/12/18 10:34:41;;;;;;;;;25.00;21.67;;;;;10.69;57.89;103242.13;6067192;23;45310;-78
2021/12/18 10:37:15;;;;;;;;;22.67;21.00;;;;;10.99;57.75;103282.94;6093505;23;45446;-78
2021/12/18 10:39:49;;;;;;;;;23.00;21.33;;;;;11.01;57.64;103283.81;6094232;23;45416;-79
2021/12/18 10:42:20;;;;;;;;;23.00;21.00;;;;;11.05;57.59;103279.34;6094237;23;45279;-78
2021/12/18 10:45:13;;;;;;;;;23.67;22.00;;;;;11.09;57.62;103273.97;6093734;23;45352;-78
2021/12/18 10:48:03;;;;;;;;;22.67;18.67;;;;;11.11;57.54;103272.19;6093098;23;45350;-79
2021/12/18 10:50:46;;;;;;;;;21.67;21.00;;;;;11.15;57.21;103271.28;6094040;23;45406;-79
2021/12/18 10:53:32;;;;;;;;;25.33;23.33;;;;;11.19;57.19;103266.78;6091660;23;45907;-86
2021/12/18 10:56:01;;;;;;;;;22.67;19.33;;;;;11.22;57.81;103261.47;6092314;23;45387;-78
2021/12/18 10:58:35;;;;;;;;;23.33;20.00;;;;;10.97;57.06;103210.00;6091742;23;45304;-78
2021/12/18 11:01:21;;;;;;;;;22.00;19.00;;;;;11.18;57.85;103239.22;6091952;23;45657;-78
2021/12/18 11:03:51;;;;;;;;;25.67;21.00;;;;;11.29;58.06;103256.97;6090221;23;46018;-78
2021/12/18 11:06:20;;;;;;;;;24.00;18.33;;;;;11.30;57.94;103248.06;6093438;23;45696;-78
2021/12/18 11:09:08;;;;;;;;;23.00;21.67;;;;;11.32;57.20;103252.47;6093790;23;45426;-77
2021/12/18 11:14:13;;;;;;;;;21.67;20.00;;;;;11.30;56.40;103238.25;6092706;23;46064;-77
2021/12/18 11:16:46;;;;;;;;;24.67;19.00;;;;;11.38;56.34;103238.22;6067444;23;45347;-77
2021/12/18 11:19:14;;;;;;;;;24.33;20.00;;;;;11.42;56.05;103239.97;6093522;23;45358;-77
2021/12/18 11:21:49;;;;;;;;;28.33;23.00;;;;;11.44;55.90;103243.50;6093478;23;45231;-77
2021/12/18 11:24:16;;;;;;;;;21.67;20.00;;;;;11.18;55.85;103190.28;6093459;23;46129;-77
2021/12/18 11:27:05;;;;;;;;;19.33;18.33;;;;;11.52;56.01;103248.78;6093225;23;45275;-77
2021/12/18 11:29:51;;;;;;;;;24.00;22.00;;;;;11.57;56.04;103250.53;6092636;23;45420;-77
2021/12/18 11:32:19;;;;;;;;;20.33;19.67;;;;;11.39;55.68;103208.81;6094446;23;45302;-79
2021/12/18 11:34:47;;;;;;;;;26.67;24.00;;;;;11.50;55.84;103218.56;6093063;23;46101;-77
2021/12/18 11:37:16;;;;;;;;;22.67;19.00;;;;;11.68;56.27;103237.06;6094208;23;45299;-77
2021/12/18 11:39:44;;;;;;;;;20.33;19.00;;;;;11.61;56.38;103216.66;6067414;23;45782;-78
2021/12/18 11:42:10;;;;;;;;;19.67;16.67;;;;;11.77;56.80;103236.13;6093490;23;45542;-78
2021/12/18 11:44:40;;;;;;;;;24.00;18.33;;;;;11.52;55.41;103171.31;6092968;23;46596;-77
2021/12/18 11:47:34;;;;;;;;;23.33;20.33;;;;;11.85;56.68;103228.94;6089628;23;45382;-77
2021/12/18 11:50:19;;;;;;;;;18.33;18.33;;;;;11.92;55.44;103222.66;6091957;23;45469;-78
2021/12/18 11:53:16;;;;;;;;;17.67;16.33;;;;;11.99;55.25;103228.84;6092367;23;45582;-78
2021/12/18 11:55:51;;;;;;;;;21.00;19.33;;;;;12.03;56.42;103218.13;6091788;23;46157;-79
2021/12/18 11:58:21;;;;;;;;;22.00;17.33;;;;;12.08;54.86;103223.41;6067061;23;45435;-78
2021/12/18 12:00:51;;;;;;;;;17.67;17.67;;;;;11.98;54.79;103192.31;6093710;23;45268;-78
2021/12/18 12:03:39;;;;;;;;;26.67;20.33;;;;;12.17;56.50;103219.75;6093689;23;45793;-81
2021/12/18 12:06:30;;;;;;;;;22.00;19.00;;;;;12.18;55.97;103208.16;6093368;23;45298;-81
2021/12/18 12:09:35;;;;;;;;;23.67;21.67;;;;;12.27;55.85;103204.47;6093140;23;45391;-84
2021/12/18 12:12:04;;;;;;;;;26.33;20.33;;;;;12.08;55.28;103172.63;6094188;23;45369;-84
2021/12/18 12:14:35;;;;;;;;;23.00;19.00;;;;;12.29;55.68;103191.97;6095065;23;45291;-82